Weather at Mid-Carolina Regional Airport

Public forecast

Using degrees Fahrenheit for public forecast. Weather courtesy of forecast.io.

Current aviation weather report (METAR) for Mid-Carolina Regional Airport

2024/06/23 17:05 (retrieved 20 minutes ago)

KRUQ 231705Z AUTO 19009KT 10SM SCT038 SCT045 SCT055 32/22 A2993 RMK AO2 T03190215

Closest aviation forecast (TAF) to Mid-Carolina Regional Airport

Closest forecast is Smith Reynolds Airport, 32.7 nm (60.5 km) NNE.

2024/06/23 12:22 (retrieved 5 hours ago)

TAF KINT 231120Z 2312/2412 22004KT P6SM SKC FM231400 22012G18KT P6SM FEW040 SCT250 FM232300 19006KT P6SM FEW070 BKN250